Time;durP1;ratioP1;P1;durP2;ratioP2;P2;SDS_P1;SDS_P2;PMS_P1;PMS_P2;Temp;Humidity;BMP_temperature;BMP_pressure;BME280_temperature;BME280_humidity;BME280_pressure;Samples;Min_cycle;Max_cycle;Signal;HPM_P1;HPM_P2
2022/05/25 00:01:30;;;;;;;1999.90;999.90;;;11.10;99.90;;;;;;5063909;28;20473;-68
2022/05/25 00:03:56;;;;;;;1999.90;999.90;;;11.20;99.90;;;;;;5066343;28;20485;-68
2022/05/25 00:06:24;;;;;;;1999.90;999.90;;;11.20;99.90;;;;;;5067420;28;20489;-69
2022/05/25 00:08:50;;;;;;;1999.90;999.90;;;11.30;99.90;;;;;;5065440;28;20491;-69
2022/05/25 00:11:18;;;;;;;1999.90;999.90;;;11.20;99.90;;;;;;5065443;28;20473;-69
2022/05/25 00:13:45;;;;;;;1999.90;999.90;;;11.20;99.90;;;;;;5064020;28;20469;-69
2022/05/25 00:16:12;;;;;;;1999.90;999.90;;;11.20;99.90;;;;;;5065005;28;20461;-69
2022/05/25 00:19:58;;;;;;;1999.90;999.90;;;11.20;99.90;;;;;;5065800;28;20493;-68
2022/05/25 00:21:25;;;;;;;1999.90;999.90;;;11.30;99.90;;;;;;5064354;28;20457;-69
2022/05/25 00:23:51;;;;;;;1999.90;999.90;;;11.30;99.90;;;;;;5064148;28;20468;-69
2022/05/25 00:26:20;;;;;;;1999.90;999.90;;;11.30;99.90;;;;;;5065932;28;20485;-69
2022/05/25 00:28:46;;;;;;;1999.90;999.90;;;11.40;99.90;;;;;;5065212;28;20485;-69
2022/05/25 00:31:14;;;;;;;1999.90;999.90;;;11.50;99.90;;;;;;5064399;28;20965;-69
2022/05/25 00:33:40;;;;;;;1999.90;999.90;;;11.30;99.90;;;;;;5064211;28;20545;-69
2022/05/25 00:36:07;;;;;;;1999.90;999.90;;;11.30;99.90;;;;;;5065611;28;20705;-69
2022/05/25 00:38:34;;;;;;;1999.90;999.90;;;11.30;99.90;;;;;;5066467;28;20543;-69
2022/05/25 00:41:00;;;;;;;1999.90;999.90;;;11.50;99.90;;;;;;5066405;28;20500;-69
2022/05/25 00:43:28;;;;;;;1999.90;999.90;;;11.50;99.90;;;;;;5065427;28;20491;-69
2022/05/25 00:46:00;;;;;;;1999.90;999.90;;;11.30;99.90;;;;;;5064746;28;20477;-68
2022/05/25 00:48:32;;;;;;;1999.90;999.90;;;11.30;99.90;;;;;;5065721;28;20552;-69
2022/05/25 00:51:13;;;;;;;1999.90;999.90;;;11.30;99.90;;;;;;5064803;28;21005;-69
2022/05/25 00:53:41;;;;;;;1999.90;999.90;;;11.20;99.90;;;;;;5065018;28;20461;-68
2022/05/25 00:56:10;;;;;;;1999.90;999.90;;;11.30;99.90;;;;;;5065978;28;20475;-69
2022/05/25 00:58:40;;;;;;;1999.90;999.90;;;11.40;99.90;;;;;;5064961;28;20481;-68
2022/05/25 01:01:06;;;;;;;1999.90;999.90;;;11.40;99.90;;;;;;5065957;28;20567;-69
2022/05/25 01:03:33;;;;;;;1999.90;999.90;;;11.50;99.90;;;;;;5065390;28;20531;-69
2022/05/25 01:06:09;;;;;;;1999.90;999.90;;;11.60;99.90;;;;;;5064320;28;20575;-69
2022/05/25 01:08:49;;;;;;;1999.90;999.90;;;11.70;99.90;;;;;;5065391;28;20541;-69
2022/05/25 01:11:31;;;;;;;1999.90;999.90;;;11.80;99.90;;;;;;5067401;28;20449;-69
2022/05/25 01:14:08;;;;;;;1999.90;999.90;;;11.80;99.90;;;;;;5067642;28;20480;-69
2022/05/25 01:16:43;;;;;;;1999.90;999.90;;;11.80;99.90;;;;;;5068867;28;21090;-70
2022/05/25 01:19:22;;;;;;;1999.90;999.90;;;11.70;99.90;;;;;;5067144;28;20502;-69
2022/05/25 01:21:54;;;;;;;1999.90;999.90;;;11.70;99.90;;;;;;5063661;28;20514;-69
2022/05/25 01:24:31;;;;;;;1999.90;999.90;;;11.70;99.90;;;;;;5064614;28;21003;-69
2022/05/25 01:27:19;;;;;;;1999.90;999.90;;;11.70;99.90;;;;;;5064680;28;20499;-71
2022/05/25 01:30:04;;;;;;;1999.90;999.90;;;11.80;99.90;;;;;;5063921;28;20489;-68
2022/05/25 01:32:38;;;;;;;1999.90;999.90;;;11.90;99.90;;;;;;5064415;28;20468;-69
2022/05/25 01:35:12;;;;;;;1999.90;999.90;;;12.00;99.90;;;;;;5063232;28;20457;-69
2022/05/25 01:37:47;;;;;;;1999.90;999.90;;;12.10;99.90;;;;;;5063802;28;20453;-69
2022/05/25 01:40:18;;;;;;;1999.90;999.90;;;12.20;99.90;;;;;;5061252;28;20452;-69
2022/05/25 01:42:50;;;;;;;1999.90;999.90;;;12.20;99.90;;;;;;5064706;28;20453;-69
2022/05/25 01:45:21;;;;;;;1999.90;999.90;;;12.20;99.90;;;;;;5064176;28;20465;-69
2022/05/25 01:47:50;;;;;;;1999.90;999.90;;;12.30;99.90;;;;;;5064404;28;20457;-69
2022/05/25 01:50:21;;;;;;;1999.90;999.90;;;12.30;99.90;;;;;;5064648;28;20491;-69
2022/05/25 01:52:53;;;;;;;1999.90;999.90;;;12.30;99.90;;;;;;5063704;28;20514;-70
2022/05/25 01:55:23;;;;;;;1999.90;999.90;;;12.40;99.90;;;;;;5066042;28;20457;-69
2022/05/25 01:57:54;;;;;;;1999.90;999.90;;;12.30;99.90;;;;;;5064291;28;20530;-69
2022/05/25 02:00:32;;;;;;;1999.90;999.90;;;12.30;99.90;;;;;;5065162;28;20457;-67
2022/05/25 02:05:47;;;;;;;1999.90;999.90;;;12.30;99.90;;;;;;5041793;28;20480;-69
2022/05/25 02:08:23;;;;;;;1999.90;999.90;;;12.30;99.90;;;;;;5066756;28;20477;-69
2022/05/25 02:11:00;;;;;;;1999.90;999.90;;;12.20;99.90;;;;;;5067980;28;20457;-69
2022/05/25 02:13:46;;;;;;;1999.90;999.90;;;12.30;99.90;;;;;;5067360;28;20518;-69
2022/05/25 02:16:24;;;;;;;1999.90;999.90;;;12.30;99.90;;;;;;5066610;28;20458;-69
2022/05/25 02:19:00;;;;;;;1999.90;999.90;;;12.20;99.90;;;;;;5068049;28;20480;-69
2022/05/25 02:21:32;;;;;;;1999.90;999.90;;;12.00;99.90;;;;;;5067167;28;20461;-69
2022/05/25 02:24:04;;;;;;;1999.90;999.90;;;11.80;99.90;;;;;;5066782;28;20469;-69
2022/05/25 02:26:34;;;;;;;1999.90;999.90;;;11.70;99.90;;;;;;5070836;28;20465;-69
2022/05/25 02:29:06;;;;;;;1999.90;999.90;;;11.70;99.90;;;;;;5066103;28;21315;-69
2022/05/25 02:31:38;;;;;;;1999.90;999.90;;;11.70;99.90;;;;;;5067694;28;20465;-67
2022/05/25 02:34:09;;;;;;;1999.90;999.90;;;11.80;99.90;;;;;;5063572;28;20461;-69
2022/05/25 02:36:38;;;;;;;1999.90;999.90;;;12.00;99.90;;;;;;5068737;28;20545;-69
2022/05/25 02:39:06;;;;;;;1999.90;999.90;;;11.90;99.90;;;;;;5066538;28;20489;-69
2022/05/25 02:41:36;;;;;;;1999.90;999.90;;;11.90;99.90;;;;;;5069384;28;20514;-67
2022/05/25 02:44:03;;;;;;;1999.90;999.90;;;11.90;99.90;;;;;;5067321;28;20469;-69
2022/05/25 02:46:30;;;;;;;1999.90;999.90;;;11.80;99.90;;;;;;5068974;28;20488;-69
2022/05/25 02:48:58;;;;;;;1999.90;999.90;;;11.80;99.90;;;;;;5066565;28;20489;-69
2022/05/25 02:51:26;;;;;;;1999.90;999.90;;;11.90;99.90;;;;;;5066801;28;20469;-69
2022/05/25 02:53:53;;;;;;;1999.90;999.90;;;11.90;99.90;;;;;;5065218;28;20526;-68
2022/05/25 02:56:20;;;;;;;1999.90;999.90;;;11.90;99.90;;;;;;5069311;28;20599;-69
2022/05/25 02:58:47;;;;;;;1999.90;999.90;;;11.90;99.90;;;;;;5066161;28;20530;-67
2022/05/25 03:01:13;;;;;;;1999.90;999.90;;;11.80;99.90;;;;;;5065165;28;20969;-69
2022/05/25 03:03:40;;;;;;;1999.90;999.90;;;11.60;99.90;;;;;;5067411;28;20461;-69
2022/05/25 03:06:08;;;;;;;1999.90;999.90;;;11.60;99.90;;;;;;5065671;28;20482;-69
2022/05/25 03:08:36;;;;;;;1999.90;999.90;;;11.50;99.90;;;;;;5065944;28;20550;-69
2022/05/25 03:11:03;;;;;;;1999.90;999.90;;;11.60;99.90;;;;;;5065970;28;20488;-69
2022/05/25 03:13:30;;;;;;;1999.90;999.90;;;11.70;99.90;;;;;;5067049;28;20458;-69
2022/05/25 03:15:58;;;;;;;1999.90;999.90;;;11.80;99.90;;;;;;5065854;28;20449;-70
2022/05/25 03:18:24;;;;;;;1999.90;999.90;;;11.80;99.90;;;;;;5065884;28;20482;-69
2022/05/25 03:20:51;;;;;;;1999.90;999.90;;;12.00;99.90;;;;;;5066055;28;20461;-69
2022/05/25 03:23:19;;;;;;;1999.90;999.90;;;12.00;99.90;;;;;;5066056;28;20460;-69
2022/05/25 03:25:47;;;;;;;1999.90;999.90;;;12.10;99.90;;;;;;5067093;28;20511;-69
2022/05/25 03:28:14;;;;;;;1999.90;999.90;;;12.20;99.90;;;;;;5067751;28;20488;-69
2022/05/25 03:30:43;;;;;;;1999.90;999.90;;;12.30;99.90;;;;;;5066856;28;20473;-69
2022/05/25 03:33:10;;;;;;;1999.90;999.90;;;12.30;99.90;;;;;;5066995;28;20469;-69
2022/05/25 03:35:38;;;;;;;1999.90;999.90;;;12.40;99.90;;;;;;5066407;28;20469;-69
2022/05/25 03:38:05;;;;;;;1999.90;999.90;;;12.50;99.90;;;;;;5065021;28;20526;-69
2022/05/25 03:40:34;;;;;;;1999.90;999.90;;;12.60;99.90;;;;;;5067349;28;20514;-69
2022/05/25 03:43:00;;;;;;;1999.90;999.90;;;12.70;99.90;;;;;;5067688;28;20971;-69
2022/05/25 03:45:27;;;;;;;1999.90;999.90;;;12.70;99.90;;;;;;5070033;28;20962;-69
2022/05/25 03:47:54;;;;;;;1999.90;999.90;;;12.70;99.90;;;;;;5067980;28;20940;-69
2022/05/25 03:50:21;;;;;;;1999.90;999.90;;;12.70;99.90;;;;;;5069800;28;20507;-70
2022/05/25 03:52:48;;;;;;;1999.90;999.90;;;12.70;99.90;;;;;;5069237;28;20477;-67
2022/05/25 03:55:15;;;;;;;1999.90;999.90;;;12.80;99.90;;;;;;5067991;28;20460;-68
2022/05/25 03:57:43;;;;;;;1999.90;999.90;;;12.80;99.90;;;;;;5066120;28;20457;-69
2022/05/25 04:00:11;;;;;;;1999.90;999.90;;;12.70;99.90;;;;;;5062362;28;20468;-69
2022/05/25 04:02:38;;;;;;;1999.90;999.90;;;12.70;99.90;;;;;;5063599;28;20569;-69
2022/05/25 04:05:12;;;;;;;1999.90;999.90;;;12.70;99.90;;;;;;5062950;28;20507;-69
2022/05/25 04:07:40;;;;;;;1999.90;999.90;;;12.70;99.90;;;;;;5062396;28;20497;-69
2022/05/25 04:10:11;;;;;;;1999.90;999.90;;;12.70;99.90;;;;;;5065004;28;20531;-69
2022/05/25 04:12:38;;;;;;;1999.90;999.90;;;12.70;99.90;;;;;;5066727;28;20469;-68
2022/05/25 04:15:08;;;;;;;1999.90;999.90;;;12.70;99.90;;;;;;5064243;28;20548;-69
2022/05/25 04:17:35;;;;;;;1999.90;999.90;;;12.70;99.90;;;;;;5066499;28;20454;-69
2022/05/25 04:20:02;;;;;;;1999.90;999.90;;;12.60;99.90;;;;;;5065747;28;21021;-69
2022/05/25 04:22:29;;;;;;;1999.90;999.90;;;12.60;99.90;;;;;;5067340;28;20511;-69
2022/05/25 04:24:56;;;;;;;1999.90;999.90;;;12.60;99.90;;;;;;5066325;28;20465;-69
2022/05/25 04:27:23;;;;;;;1999.90;999.90;;;12.50;99.90;;;;;;5066925;28;21066;-69
2022/05/25 04:29:50;;;;;;;1999.90;999.90;;;12.60;99.90;;;;;;5065570;28;20542;-69
2022/05/25 04:32:18;;;;;;;1999.90;999.90;;;12.60;99.90;;;;;;5066325;28;20471;-68
2022/05/25 04:34:45;;;;;;;1999.90;999.90;;;12.70;99.90;;;;;;5066255;28;20466;-69
2022/05/25 04:39:56;;;;;;;1999.90;999.90;;;12.80;99.90;;;;;;5063448;28;21618;-68
2022/05/25 04:42:28;;;;;;;1999.90;999.90;;;13.00;99.90;;;;;;5064483;28;20961;-69
2022/05/25 04:44:59;;;;;;;1999.90;999.90;;;13.20;99.90;;;;;;5069648;28;20461;-69
2022/05/25 04:47:27;;;;;;;1999.90;999.90;;;13.30;99.90;;;;;;5069748;28;20470;-68
2022/05/25 04:49:54;;;;;;;1999.90;999.90;;;13.50;99.90;;;;;;5069057;28;20538;-68
2022/05/25 04:52:21;;;;;;;1999.90;999.90;;;13.60;99.90;;;;;;5068519;28;20459;-69
2022/05/25 04:54:47;;;;;;;1999.90;999.90;;;13.70;99.90;;;;;;5069874;28;20961;-70
2022/05/25 04:57:19;;;;;;;1999.90;999.90;;;13.80;99.90;;;;;;5066852;28;20556;-70
2022/05/25 04:59:46;;;;;;;1999.90;999.90;;;14.00;99.90;;;;;;5064786;28;21097;-68
2022/05/25 05:02:13;;;;;;;1999.90;999.90;;;14.20;99.90;;;;;;5064477;28;20473;-69
2022/05/25 05:04:41;;;;;;;1999.90;999.90;;;14.20;99.90;;;;;;5065838;28;20453;-69
2022/05/25 05:07:08;;;;;;;1999.90;999.90;;;14.40;99.90;;;;;;5064698;28;21000;-68
2022/05/25 05:09:34;;;;;;;1999.90;999.90;;;14.50;99.90;;;;;;5066252;28;20477;-69
2022/05/25 05:12:02;;;;;;;1999.90;999.90;;;14.70;99.90;;;;;;5064896;28;20534;-69
2022/05/25 05:14:29;;;;;;;1999.90;999.90;;;14.80;99.90;;;;;;5065683;28;20507;-69
2022/05/25 05:16:57;;;;;;;1999.90;999.90;;;14.90;99.90;;;;;;5064731;28;21056;-67
2022/05/25 05:19:25;;;;;;;1999.90;999.90;;;15.00;99.90;;;;;;5066379;28;20568;-69
2022/05/25 05:21:55;;;;;;;1999.90;999.90;;;14.70;99.90;;;;;;5064525;28;20839;-69
2022/05/25 05:24:21;;;;;;;1999.90;999.90;;;15.00;99.90;;;;;;5065205;28;20459;-69
2022/05/25 05:26:48;;;;;;;1999.90;999.90;;;15.20;99.90;;;;;;5065469;28;20914;-70
2022/05/25 05:29:15;;;;;;;1999.90;999.90;;;15.50;99.90;;;;;;5064289;28;20537;-69
2022/05/25 05:31:42;;;;;;;1999.90;999.90;;;15.40;99.90;;;;;;5065017;28;20461;-68
2022/05/25 05:34:09;;;;;;;1999.90;999.90;;;15.70;99.90;;;;;;5064191;28;20457;-69
2022/05/25 05:36:40;;;;;;;1999.90;999.90;;;15.60;99.90;;;;;;5064021;28;20515;-69
2022/05/25 05:39:11;;;;;;;1999.90;999.90;;;16.00;99.90;;;;;;5063641;28;20481;-68
2022/05/25 05:41:41;;;;;;;1999.90;999.90;;;16.10;99.90;;;;;;5067494;28;20879;-68
2022/05/25 05:44:10;;;;;;;1999.90;999.90;;;16.00;99.90;;;;;;5068011;28;20461;-67
2022/05/25 05:46:41;;;;;;;1999.90;999.90;;;16.20;99.90;;;;;;5069182;28;20481;-68
2022/05/25 05:49:08;;;;;;;1999.90;999.90;;;16.70;99.90;;;;;;5068287;28;20580;-69
2022/05/25 05:51:35;;;;;;;1999.90;999.90;;;16.80;99.90;;;;;;5070846;28;20469;-70
2022/05/25 05:54:03;;;;;;;1999.90;999.90;;;16.80;99.90;;;;;;5066653;28;20473;-69
2022/05/25 05:56:33;;;;;;;1999.90;999.90;;;17.10;99.90;;;;;;5071501;28;20521;-69
2022/05/25 05:59:00;;;;;;;1999.90;999.90;;;17.30;99.90;;;;;;5070029;28;21056;-70
2022/05/25 06:01:27;;;;;;;1999.90;999.90;;;17.10;99.90;;;;;;5075922;28;20950;-69
2022/05/25 06:03:53;;;;;;;1999.90;999.90;;;17.40;99.90;;;;;;5061905;28;20466;-68
2022/05/25 06:06:20;;;;;;;1999.90;999.90;;;17.30;99.90;;;;;;5071649;28;20457;-69
2022/05/25 06:08:47;;;;;;;1999.90;999.90;;;17.20;99.90;;;;;;5068273;28;20481;-69
2022/05/25 06:11:14;;;;;;;1999.90;999.90;;;17.40;99.90;;;;;;5071903;28;20461;-70
2022/05/25 06:13:43;;;;;;;1999.90;999.90;;;17.20;99.90;;;;;;5073618;28;20548;-69
2022/05/25 06:21:38;;;;;;;1999.90;999.90;;;17.80;99.90;;;;;;5069638;28;22238;-70
2022/05/25 06:24:05;;;;;;;1999.90;999.90;;;18.00;99.90;;;;;;5073584;28;20468;-69
2022/05/25 06:26:32;;;;;;;1999.90;999.90;;;18.00;99.90;;;;;;5074408;28;20910;-69
2022/05/25 06:29:01;;;;;;;1999.90;999.90;;;18.00;99.90;;;;;;5074226;28;20465;-70
2022/05/25 06:31:29;;;;;;;1999.90;999.90;;;17.90;99.90;;;;;;5071435;28;20461;-70
2022/05/25 06:33:56;;;;;;;1999.90;999.90;;;17.90;99.90;;;;;;5073921;28;20523;-70
2022/05/25 06:36:25;;;;;;;1999.90;999.90;;;18.20;99.90;;;;;;5072690;28;20893;-72
2022/05/25 06:38:52;;;;;;;1999.90;999.90;;;18.10;99.90;;;;;;5074755;28;20479;-69
2022/05/25 06:41:20;;;;;;;1999.90;999.90;;;17.80;99.90;;;;;;5072091;28;20462;-69
2022/05/25 06:43:46;;;;;;;1999.90;999.90;;;18.10;99.90;;;;;;5072252;28;20462;-69
2022/05/25 06:46:18;;;;;;;1999.90;999.90;;;18.30;99.90;;;;;;5072605;28;20458;-69
2022/05/25 06:48:46;;;;;;;1999.90;999.90;;;18.60;99.90;;;;;;5071704;28;20573;-70
2022/05/25 06:51:15;;;;;;;1999.90;999.90;;;19.00;99.90;;;;;;5064176;28;20508;-69
2022/05/25 06:53:42;;;;;;;1999.90;999.90;;;19.00;99.90;;;;;;5073004;28;20446;-70
2022/05/25 06:56:08;;;;;;;1999.90;999.90;;;19.00;99.90;;;;;;5073732;28;20466;-69
2022/05/25 06:58:36;;;;;;;1999.90;999.90;;;19.00;99.90;;;;;;5070306;28;20531;-70
2022/05/25 07:01:04;;;;;;;1999.90;999.90;;;19.60;99.90;;;;;;5073698;28;20887;-70
2022/05/25 07:03:32;;;;;;;1999.90;999.90;;;19.70;99.90;;;;;;5074271;28;20495;-70
2022/05/25 07:06:02;;;;;;;1999.90;999.90;;;19.50;99.90;;;;;;5075405;28;21007;-70
2022/05/25 07:08:29;;;;;;;1999.90;999.90;;;18.70;99.90;;;;;;5075152;28;20901;-70
2022/05/25 07:10:55;;;;;;;1999.90;999.90;;;19.10;99.90;;;;;;5075182;28;20449;-70
2022/05/25 07:13:22;;;;;;;1999.90;999.90;;;19.30;99.90;;;;;;5074245;28;20446;-69
2022/05/25 07:15:49;;;;;;;1999.90;999.90;;;19.10;99.90;;;;;;5075282;28;20445;-70
2022/05/25 07:18:16;;;;;;;1999.90;999.90;;;19.30;99.90;;;;;;5064331;28;20478;-69
2022/05/25 07:20:44;;;;;;;1999.90;999.90;;;19.40;99.90;;;;;;5075498;28;20442;-71
2022/05/25 07:23:11;;;;;;;1999.90;999.90;;;19.30;99.90;;;;;;5074671;28;20845;-69
2022/05/25 07:25:37;;;;;;;1999.90;999.90;;;19.00;99.90;;;;;;5074912;28;20499;-70
2022/05/25 07:28:05;;;;;;;1999.90;999.90;;;18.90;99.90;;;;;;5074893;28;20489;-69
2022/05/25 07:30:31;;;;;;;1999.90;999.90;;;19.20;99.90;;;;;;5075608;28;20503;-70
2022/05/25 07:32:59;;;;;;;1999.90;999.90;;;19.20;99.90;;;;;;5075412;28;20446;-70
2022/05/25 07:35:26;;;;;;;1999.90;999.90;;;18.80;99.90;;;;;;5075285;28;20476;-69
2022/05/25 07:37:57;;;;;;;1999.90;999.90;;;18.90;99.90;;;;;;5072249;28;20442;-72
2022/05/25 07:40:29;;;;;;;1999.90;999.90;;;19.20;99.90;;;;;;5074595;28;20461;-70
2022/05/25 07:43:00;;;;;;;1999.90;999.90;;;19.20;99.90;;;;;;5074799;28;20472;-70
2022/05/25 07:45:27;;;;;;;1999.90;999.90;;;19.30;99.90;;;;;;5074559;28;20449;-70
2022/05/25 07:47:54;;;;;;;1999.90;999.90;;;19.60;99.40;;;;;;5074163;28;21050;-70
2022/05/25 07:50:21;;;;;;;1999.90;999.90;;;19.80;98.80;;;;;;5074329;28;20838;-69
2022/05/25 07:52:50;;;;;;;1999.90;999.90;;;20.00;98.10;;;;;;5074681;28;20515;-70
2022/05/25 07:55:19;;;;;;;1999.90;999.90;;;20.00;98.00;;;;;;5075485;28;20490;-69
2022/05/25 07:57:46;;;;;;;1999.90;999.90;;;19.70;98.10;;;;;;5074291;28;20441;-69
2022/05/25 08:00:15;;;;;;;1999.90;999.90;;;19.40;98.70;;;;;;5075006;28;20467;-70
2022/05/25 08:05:47;;;;;;;1999.90;999.90;;;19.50;99.20;;;;;;5074625;28;20505;-70
2022/05/25 08:08:17;;;;;;;1999.90;999.90;;;19.50;98.80;;;;;;5074168;28;20909;-69
2022/05/25 08:10:50;;;;;;;1999.90;999.90;;;19.30;99.40;;;;;;5073415;28;21000;-69
2022/05/25 08:13:17;;;;;;;1999.90;999.90;;;19.30;99.90;;;;;;5073282;28;20460;-69
2022/05/25 08:15:45;;;;;;;1999.90;999.90;;;19.10;99.90;;;;;;5072727;28;20539;-69
2022/05/25 08:18:12;;;;;;;1999.90;999.90;;;18.60;99.90;;;;;;5072863;28;20487;-69
2022/05/25 08:20:39;;;;;;;1999.90;999.90;;;18.30;99.90;;;;;;5072704;28;20445;-68
2022/05/25 08:23:06;;;;;;;1999.90;999.90;;;18.40;99.90;;;;;;5071673;28;20458;-69
2022/05/25 08:25:34;;;;;;;1999.90;999.90;;;18.50;99.90;;;;;;5072357;28;20498;-69
2022/05/25 08:28:02;;;;;;;1999.90;999.90;;;18.50;99.90;;;;;;5071979;28;20534;-69
2022/05/25 08:30:29;;;;;;;1999.90;999.90;;;18.60;99.90;;;;;;5072542;28;20876;-70
2022/05/25 08:32:56;;;;;;;1999.90;999.90;;;19.00;99.90;;;;;;5073371;28;20495;-69
2022/05/25 08:35:23;;;;;;;1999.90;999.90;;;19.10;99.90;;;;;;5072885;28;21019;-69
2022/05/25 08:37:50;;;;;;;1999.90;999.90;;;19.00;99.50;;;;;;5072495;28;20441;-70
2022/05/25 08:40:20;;;;;;;1999.90;999.90;;;18.90;99.90;;;;;;5072548;28;20984;-70
2022/05/25 08:42:52;;;;;;;1999.90;999.90;;;19.10;99.90;;;;;;5073900;28;20499;-70
2022/05/25 08:45:22;;;;;;;1999.90;999.90;;;19.40;99.60;;;;;;5074301;28;20434;-70
2022/05/25 08:47:53;;;;;;;1999.90;999.90;;;19.40;99.60;;;;;;5073503;28;20908;-70
2022/05/25 08:50:20;;;;;;;1999.90;999.90;;;19.70;98.90;;;;;;5073967;28;20445;-69
2022/05/25 08:52:48;;;;;;;1999.90;999.90;;;19.70;98.30;;;;;;5072461;28;20445;-69
2022/05/25 08:55:28;;;;;;;1999.90;999.90;;;19.30;99.00;;;;;;5071477;28;21188;-69
2022/05/25 08:57:58;;;;;;;1999.90;999.90;;;19.30;98.80;;;;;;5060931;28;20462;-69
2022/05/25 09:00:27;;;;;;;1999.90;999.90;;;19.40;99.00;;;;;;5064172;28;20526;-69
2022/05/25 09:03:02;;;;;;;1999.90;999.90;;;20.10;98.60;;;;;;5064386;28;20473;-69
2022/05/25 09:05:35;;;;;;;1999.90;999.90;;;20.30;97.00;;;;;;5060533;28;20514;-70
2022/05/25 09:08:09;;;;;;;1999.90;999.90;;;20.60;96.40;;;;;;5065990;28;20512;-70
2022/05/25 09:10:42;;;;;;;1999.90;999.90;;;21.00;94.60;;;;;;5058710;28;20454;-69
2022/05/25 09:13:15;;;;;;;1999.90;999.90;;;20.50;94.00;;;;;;5066704;28;20523;-70
2022/05/25 09:18:35;;;;;;;1999.90;999.90;;;21.70;94.00;;;;;;5061415;28;20539;-70
2022/05/25 09:21:05;;;;;;;1999.90;999.90;;;21.80;94.10;;;;;;5062812;28;20453;-69
2022/05/25 09:23:31;;;;;;;1999.90;999.90;;;21.00;94.50;;;;;;5064909;28;20503;-69
2022/05/25 09:25:59;;;;;;;1999.90;999.90;;;20.30;95.40;;;;;;5069796;28;20461;-69
2022/05/25 09:28:31;;;;;;;1999.90;999.90;;;19.90;95.00;;;;;;5067012;28;20485;-69
2022/05/25 09:31:02;;;;;;;1999.90;999.90;;;19.70;95.80;;;;;;5068647;28;20461;-68
2022/05/25 09:33:34;;;;;;;1999.90;999.90;;;19.90;96.10;;;;;;5067378;28;21029;-67
2022/05/25 09:36:08;;;;;;;1999.90;999.90;;;20.00;95.00;;;;;;5064841;28;20949;-69
2022/05/25 09:38:43;;;;;;;1999.90;999.90;;;20.20;94.90;;;;;;5064643;28;20899;-69
2022/05/25 09:41:13;;;;;;;1999.90;999.90;;;20.30;93.60;;;;;;5066334;28;20457;-69
2022/05/25 09:43:41;;;;;;;1999.90;999.90;;;20.20;92.50;;;;;;5062417;28;21032;-69
2022/05/25 09:46:14;;;;;;;1999.90;999.90;;;20.20;92.30;;;;;;5068881;28;20457;-69
2022/05/25 09:48:48;;;;;;;1999.90;999.90;;;19.90;93.40;;;;;;5073212;28;20489;-69
2022/05/25 09:51:23;;;;;;;1999.90;999.90;;;20.10;93.60;;;;;;5072009;28;20429;-69
2022/05/25 09:53:52;;;;;;;1999.90;999.90;;;20.20;92.90;;;;;;5069820;28;20449;-69
2022/05/25 09:56:22;;;;;;;1999.90;999.90;;;20.40;92.80;;;;;;5070464;28;20445;-69
2022/05/25 09:58:53;;;;;;;1999.90;999.90;;;20.70;93.60;;;;;;5071395;28;20462;-68
2022/05/25 10:01:25;;;;;;;1999.90;999.90;;;21.10;92.50;;;;;;5064659;28;20465;-69
2022/05/25 10:03:53;;;;;;;1999.90;999.90;;;21.50;90.80;;;;;;5060645;28;20467;-69
2022/05/25 10:06:24;;;;;;;1999.90;999.90;;;20.90;90.50;;;;;;5062153;28;20483;-69
2022/05/25 10:09:06;;;;;;;1999.90;999.90;;;21.20;92.00;;;;;;5064486;28;20489;-69
2022/05/25 10:11:41;;;;;;;1999.90;999.90;;;21.40;91.30;;;;;;5061444;28;20462;-67
2022/05/25 10:14:32;;;;;;;1999.90;999.90;;;21.80;90.90;;;;;;5062821;28;20454;-69
2022/05/25 10:17:08;;;;;;;1999.90;999.90;;;21.20;89.20;;;;;;5047843;28;20519;-69
2022/05/25 10:19:47;;;;;;;1999.90;999.90;;;21.10;87.80;;;;;;5064479;28;20476;-69
2022/05/25 10:22:29;;;;;;;1999.90;999.90;;;21.40;87.80;;;;;;5067955;28;20453;-68
2022/05/25 10:25:00;;;;;;;1999.90;999.90;;;21.70;87.70;;;;;;5064525;28;20468;-69
2022/05/25 10:27:34;;;;;;;1999.90;999.90;;;21.20;88.30;;;;;;5071417;28;20550;-69
2022/05/25 10:38:39;;;;;;;1999.90;999.90;;;21.20;88.50;;;;;;5030042;28;20449;-69
2022/05/25 10:43:58;;;;;;;1999.90;999.90;;;21.30;86.40;;;;;;5073814;28;20469;-69
2022/05/25 10:46:25;;;;;;;1999.90;999.90;;;21.50;88.20;;;;;;5074341;28;20434;-69
2022/05/25 10:49:00;;;;;;;1999.90;999.90;;;21.80;88.70;;;;;;5074115;28;20489;-69
2022/05/25 10:51:33;;;;;;;1999.90;999.90;;;21.30;90.10;;;;;;5072390;28;20453;-69
2022/05/25 10:57:00;;;;;;;1999.90;999.90;;;21.10;89.00;;;;;;5072759;28;20491;-69
2022/05/25 10:59:34;;;;;;;1999.90;999.90;;;21.30;89.30;;;;;;5063920;28;20496;-69
2022/05/25 11:02:17;;;;;;;1999.90;999.90;;;21.20;89.20;;;;;;5069178;28;20992;-69
2022/05/25 11:05:07;;;;;;;1999.90;999.90;;;21.60;87.90;;;;;;5073438;28;20855;-69
2022/05/25 11:07:36;;;;;;;1999.90;999.90;;;21.70;89.50;;;;;;5073889;28;20437;-69
2022/05/25 11:10:34;;;;;;;1999.90;999.90;;;22.00;87.30;;;;;;5073628;28;20488;-69
2022/05/25 11:13:20;;;;;;;1999.90;999.90;;;21.70;86.90;;;;;;5019642;28;20461;-69
2022/05/25 11:15:56;;;;;;;1999.90;999.90;;;22.10;84.50;;;;;;5065454;28;20485;-69
2022/05/25 11:18:40;;;;;;;1999.90;999.90;;;22.60;85.30;;;;;;5070916;28;20535;-69
2022/05/25 11:21:21;;;;;;;1999.90;999.90;;;21.90;87.90;;;;;;5067547;28;20507;-69
2022/05/25 11:24:08;;;;;;;1999.90;999.90;;;21.50;88.70;;;;;;5069688;28;20514;-69
2022/05/25 11:26:54;;;;;;;1999.90;999.90;;;21.60;88.50;;;;;;5073407;28;20445;-69
2022/05/25 11:29:47;;;;;;;1999.90;999.90;;;21.50;87.70;;;;;;5073751;28;20485;-69
2022/05/25 11:32:24;;;;;;;1999.90;999.90;;;21.60;89.00;;;;;;5071655;28;20449;-69
2022/05/25 11:35:21;;;;;;;1999.90;999.90;;;22.20;87.10;;;;;;5063389;28;20482;-69
2022/05/25 11:38:04;;;;;;;1999.90;999.90;;;22.40;86.90;;;;;;5068109;28;20465;-69
2022/05/25 11:40:43;;;;;;;1999.90;999.90;;;23.10;86.90;;;;;;5063382;28;20449;-70
2022/05/25 11:43:37;;;;;;;1999.90;999.90;;;23.20;84.20;;;;;;5069214;28;20433;-69
2022/05/25 11:46:10;;;;;;;1999.90;999.90;;;23.00;84.20;;;;;;5053898;28;20484;-69
2022/05/25 11:48:56;;;;;;;1999.90;999.90;;;22.20;85.60;;;;;;5065918;28;20971;-70
2022/05/25 11:51:27;;;;;;;1999.90;999.90;;;22.10;87.10;;;;;;5072990;28;20828;-69
2022/05/25 11:54:08;;;;;;;1999.90;999.90;;;21.70;86.80;;;;;;5072633;28;20967;-69
2022/05/25 11:56:56;;;;;;;1999.90;999.90;;;21.70;88.20;;;;;;5072772;28;20502;-69
2022/05/25 11:59:58;;;;;;;1999.90;999.90;;;21.70;87.30;;;;;;5074086;28;21004;-69
2022/05/25 12:02:45;;;;;;;1999.90;999.90;;;21.70;88.70;;;;;;5072481;28;20463;-69
2022/05/25 12:05:21;;;;;;;1999.90;999.90;;;21.40;89.50;;;;;;5072663;28;20437;-69
2022/05/25 12:08:03;;;;;;;1999.90;999.90;;;21.70;90.10;;;;;;5070052;28;20953;-69
2022/05/25 12:10:34;;;;;;;1999.90;999.90;;;21.80;90.00;;;;;;5070791;28;20480;-69
2022/05/25 12:13:07;;;;;;;1999.90;999.90;;;21.80;90.30;;;;;;5071956;28;20445;-69
2022/05/25 12:15:42;;;;;;;1999.90;999.90;;;21.80;90.40;;;;;;5072365;28;20429;-69
2022/05/25 12:18:18;;;;;;;1999.90;999.90;;;22.00;91.20;;;;;;5072598;28;20891;-69
2022/05/25 12:20:51;;;;;;;1999.90;999.90;;;22.10;90.80;;;;;;5072546;28;20453;-69
2022/05/25 12:23:22;;;;;;;1999.90;999.90;;;22.30;90.10;;;;;;5071252;28;20453;-68
2022/05/25 12:25:53;;;;;;;1999.90;999.90;;;22.50;90.50;;;;;;5072287;28;20449;-69
2022/05/25 12:28:23;;;;;;;1999.90;999.90;;;22.50;90.10;;;;;;5072441;28;20550;-69
2022/05/25 12:30:50;;;;;;;1999.90;999.90;;;22.50;87.50;;;;;;5069578;28;20491;-68
2022/05/25 12:33:24;;;;;;;1999.90;999.90;;;22.50;86.90;;;;;;5060280;28;20512;-69
2022/05/25 12:35:51;;;;;;;1999.90;999.90;;;22.30;88.30;;;;;;5056775;28;20466;-68
2022/05/25 12:38:20;;;;;;;1999.90;999.90;;;22.10;88.20;;;;;;5063029;28;20489;-69
2022/05/25 12:40:48;;;;;;;1999.90;999.90;;;21.80;90.00;;;;;;5066943;28;20468;-69
2022/05/25 12:43:48;;;;;;;1999.90;999.90;;;21.50;90.40;;;;;;5070909;28;20457;-69
2022/05/25 12:49:08;;;;;;;1999.90;999.90;;;21.60;91.40;;;;;;5068619;28;20493;-69
2022/05/25 12:51:38;;;;;;;1999.90;999.90;;;21.70;92.80;;;;;;5063399;28;20520;-69